createdAt,value
2023-12-11T00:01:15.176Z,99.90
2023-12-11T00:03:43.737Z,99.90
2023-12-11T00:06:12.811Z,99.90
2023-12-11T00:08:42.679Z,99.90
2023-12-11T00:11:14.025Z,99.90
2023-12-11T00:13:42.490Z,99.90
2023-12-11T00:16:11.329Z,99.90
2023-12-11T00:18:40.061Z,99.90
2023-12-11T00:21:09.175Z,99.90
2023-12-11T00:23:37.681Z,99.90
2023-12-11T00:26:07.896Z,99.90
2023-12-11T00:28:36.327Z,99.90
2023-12-11T00:31:11.957Z,99.90
2023-12-11T00:33:42.319Z,99.90
2023-12-11T00:36:11.234Z,99.90
2023-12-11T00:38:39.656Z,99.90
2023-12-11T00:41:10.950Z,99.90
2023-12-11T00:43:45.192Z,99.90
2023-12-11T00:46:15.727Z,99.90
2023-12-11T00:48:44.825Z,99.50
2023-12-11T00:51:17.923Z,99.50
2023-12-11T00:53:46.675Z,99.20
2023-12-11T00:56:19.283Z,99.40
2023-12-11T00:58:47.628Z,99.60
2023-12-11T01:01:16.116Z,98.80
2023-12-11T01:03:44.981Z,98.80
2023-12-11T01:06:16.764Z,99.80
2023-12-11T01:08:45.203Z,99.90
2023-12-11T01:11:13.632Z,99.90
2023-12-11T01:13:43.437Z,99.90
2023-12-11T01:16:12.022Z,99.90
2023-12-11T01:18:40.684Z,99.90
2023-12-11T01:21:09.416Z,99.90
2023-12-11T01:23:37.900Z,99.90
2023-12-11T01:26:06.723Z,99.90
2023-12-11T01:28:35.523Z,99.90
2023-12-11T01:31:06.077Z,99.30
2023-12-11T01:33:34.561Z,99.40
2023-12-11T01:36:02.310Z,99.40
2023-12-11T01:38:30.721Z,98.80
2023-12-11T01:40:59.151Z,98.70
2023-12-11T01:43:27.632Z,99.50
2023-12-11T01:46:05.225Z,99.70
2023-12-11T01:48:38.002Z,99.90
2023-12-11T01:51:08.293Z,99.90
2023-12-11T01:53:36.838Z,99.90
2023-12-11T01:56:05.767Z,99.90
2023-12-11T01:58:34.799Z,99.90
2023-12-11T02:01:03.350Z,99.90
2023-12-11T02:03:32.266Z,99.90
2023-12-11T02:06:02.701Z,99.90
2023-12-11T02:08:31.428Z,99.90
2023-12-11T02:11:00.061Z,99.90
2023-12-11T02:13:28.731Z,99.90
2023-12-11T02:15:58.140Z,99.90
2023-12-11T02:18:26.857Z,99.90
2023-12-11T02:20:55.378Z,99.90
2023-12-11T02:23:33.434Z,99.90
2023-12-11T02:26:12.167Z,99.90
2023-12-11T02:28:40.621Z,99.90
2023-12-11T02:31:09.148Z,99.10
2023-12-11T02:33:37.913Z,97.60
2023-12-11T02:36:07.121Z,97.60
2023-12-11T02:38:35.741Z,97.00
2023-12-11T02:41:04.314Z,96.10
2023-12-11T02:43:34.217Z,95.10
2023-12-11T02:46:04.175Z,93.70
2023-12-11T02:48:33.799Z,92.00
2023-12-11T02:51:02.493Z,91.00
2023-12-11T02:53:31.525Z,89.50
2023-12-11T02:56:02.404Z,89.00
2023-12-11T02:58:30.802Z,88.70
2023-12-11T03:01:02.027Z,88.70
2023-12-11T03:03:30.570Z,88.30
2023-12-11T03:05:59.499Z,87.10
2023-12-11T03:08:27.949Z,87.20
2023-12-11T03:10:56.440Z,86.80
2023-12-11T03:13:24.831Z,86.40
2023-12-11T03:15:53.285Z,86.20
2023-12-11T03:18:23.145Z,86.60
2023-12-11T03:20:51.633Z,86.40
2023-12-11T03:23:20.461Z,86.60
2023-12-11T03:25:48.998Z,87.80
2023-12-11T03:28:17.468Z,88.30
2023-12-11T03:30:45.951Z,87.70
2023-12-11T03:33:14.438Z,86.60
2023-12-11T03:35:44.314Z,86.60
2023-12-11T03:38:12.728Z,84.90
2023-12-11T03:40:41.109Z,84.40
2023-12-11T03:43:10.169Z,81.60
2023-12-11T03:45:38.660Z,77.50
2023-12-11T03:48:07.624Z,76.30
2023-12-11T03:50:36.041Z,75.60
2023-12-11T03:53:05.963Z,73.10
2023-12-11T03:55:34.628Z,66.20
2023-12-11T03:58:03.246Z,64.80
2023-12-11T04:00:31.768Z,63.10
2023-12-11T04:03:00.261Z,66.50
2023-12-11T04:05:28.718Z,68.60
2023-12-11T04:07:57.169Z,70.10
2023-12-11T04:10:27.015Z,70.40
2023-12-11T04:12:55.626Z,70.00
2023-12-11T04:15:24.084Z,71.30
2023-12-11T04:17:52.500Z,71.60
2023-12-11T04:20:21.123Z,72.30
2023-12-11T04:22:49.529Z,72.90
2023-12-11T04:25:18.030Z,71.60
2023-12-11T04:27:47.901Z,72.40
2023-12-11T04:30:16.601Z,72.80
2023-12-11T04:32:45.296Z,73.30
2023-12-11T04:35:13.918Z,73.30
2023-12-11T04:37:42.438Z,73.30
2023-12-11T04:40:11.925Z,74.00
2023-12-11T04:42:40.400Z,75.60
2023-12-11T04:45:11.286Z,78.60
2023-12-11T04:47:39.699Z,80.00
2023-12-11T04:50:08.699Z,80.70
2023-12-11T04:52:37.080Z,81.60
2023-12-11T04:55:06.085Z,81.30
2023-12-11T04:57:37.192Z,81.50
2023-12-11T05:00:06.904Z,81.80
2023-12-11T05:02:36.817Z,81.90
2023-12-11T05:05:05.722Z,82.20
2023-12-11T05:07:34.675Z,82.30
2023-12-11T05:10:04.397Z,82.20
2023-12-11T05:12:32.883Z,82.90
2023-12-11T05:15:03.564Z,82.90
2023-12-11T05:17:32.490Z,82.90
2023-12-11T05:20:04.141Z,82.70
2023-12-11T05:22:32.933Z,81.90
2023-12-11T05:25:01.620Z,83.00
2023-12-11T05:27:30.324Z,84.00
2023-12-11T05:29:58.896Z,83.60
2023-12-11T05:32:29.913Z,83.10
2023-12-11T05:34:58.327Z,81.20
2023-12-11T05:37:28.302Z,81.80
2023-12-11T05:40:01.962Z,81.10
2023-12-11T05:42:45.236Z,79.00
2023-12-11T05:45:13.700Z,78.10
2023-12-11T05:47:42.213Z,78.60
2023-12-11T05:50:11.379Z,78.40
2023-12-11T05:52:41.294Z,78.00
2023-12-11T05:55:10.358Z,78.20
2023-12-11T05:57:38.902Z,78.80
2023-12-11T06:00:09.142Z,79.40
2023-12-11T06:02:37.555Z,79.70
2023-12-11T06:05:06.720Z,80.10
2023-12-11T06:07:35.148Z,80.40
2023-12-11T06:10:05.278Z,80.00
2023-12-11T06:12:34.538Z,76.60
2023-12-11T06:15:03.006Z,76.00
2023-12-11T06:17:31.713Z,76.10
2023-12-11T06:20:00.770Z,76.50
2023-12-11T06:22:29.508Z,77.20
2023-12-11T06:24:57.988Z,77.00
2023-12-11T06:27:29.431Z,76.00
2023-12-11T06:29:58.100Z,76.30
2023-12-11T06:32:26.570Z,75.70
2023-12-11T06:34:55.209Z,73.00
2023-12-11T06:37:24.124Z,73.10
2023-12-11T06:39:52.938Z,73.80
2023-12-11T06:42:21.361Z,74.60
2023-12-11T06:44:51.207Z,74.50
2023-12-11T06:47:19.695Z,72.90
2023-12-11T06:49:48.684Z,71.20
2023-12-11T06:52:17.491Z,69.70
2023-12-11T06:54:46.050Z,69.40
2023-12-11T06:57:14.462Z,68.80
2023-12-11T06:59:42.864Z,66.30
2023-12-11T07:02:12.954Z,66.50
2023-12-11T07:04:43.616Z,66.50
2023-12-11T07:07:12.137Z,66.10
2023-12-11T07:09:41.526Z,67.30
2023-12-11T07:12:10.465Z,66.30
2023-12-11T07:14:38.882Z,66.60
2023-12-11T07:17:09.858Z,65.30
2023-12-11T07:19:39.833Z,63.40
2023-12-11T07:22:08.305Z,63.00
2023-12-11T07:24:38.252Z,59.30
2023-12-11T07:27:07.087Z,56.60
2023-12-11T07:29:35.509Z,56.50
2023-12-11T07:32:03.908Z,55.10
2023-12-11T07:34:32.485Z,54.10
2023-12-11T07:37:02.427Z,53.50
2023-12-11T07:39:30.880Z,54.10
2023-12-11T07:41:59.267Z,55.90
2023-12-11T07:44:28.064Z,55.20
2023-12-11T07:46:56.504Z,55.60
2023-12-11T07:49:25.111Z,54.40
2023-12-11T07:51:56.260Z,52.90
2023-12-11T07:54:26.314Z,49.60
2023-12-11T07:56:55.308Z,50.20
2023-12-11T07:59:23.684Z,51.00
2023-12-11T08:01:53.578Z,51.70
2023-12-11T08:04:22.103Z,51.20
2023-12-11T08:06:51.660Z,50.50
2023-12-11T08:09:20.132Z,49.00
2023-12-11T08:11:52.058Z,50.40
2023-12-11T08:14:20.748Z,52.60
2023-12-11T08:16:49.185Z,50.20
2023-12-11T08:19:17.699Z,50.70
2023-12-11T08:21:46.457Z,49.10
2023-12-11T08:24:17.076Z,51.10
2023-12-11T08:26:45.866Z,50.10
2023-12-11T08:29:15.749Z,50.60
2023-12-11T08:31:44.581Z,45.60
2023-12-11T08:34:13.067Z,45.70
2023-12-11T08:36:41.518Z,45.40
2023-12-11T08:39:10.929Z,44.30
2023-12-11T08:41:39.334Z,45.60
2023-12-11T08:44:07.756Z,45.30
2023-12-11T08:46:38.783Z,47.50
2023-12-11T08:49:07.342Z,48.70
2023-12-11T08:51:36.156Z,48.90
2023-12-11T08:54:04.732Z,47.70
2023-12-11T08:56:33.583Z,49.00
2023-12-11T08:59:01.999Z,48.30
2023-12-11T09:01:32.323Z,48.90
2023-12-11T09:04:05.164Z,49.30
2023-12-11T09:06:33.625Z,49.60
2023-12-11T09:09:02.056Z,48.00
2023-12-11T09:11:30.451Z,49.50
2023-12-11T09:13:58.878Z,50.80
2023-12-11T09:16:28.327Z,50.20
2023-12-11T09:18:57.388Z,49.00
2023-12-11T09:21:28.112Z,49.40
2023-12-11T09:23:56.490Z,48.00
2023-12-11T09:26:24.954Z,45.00
2023-12-11T09:28:53.402Z,45.00
2023-12-11T09:31:21.953Z,43.60
2023-12-11T09:33:50.578Z,42.70
2023-12-11T09:36:20.272Z,41.20
2023-12-11T09:38:50.631Z,41.60
2023-12-11T09:41:19.330Z,42.50
2023-12-11T09:43:50.490Z,38.20
2023-12-11T09:46:20.946Z,40.30
2023-12-11T09:48:50.726Z,39.20
2023-12-11T09:51:19.706Z,41.70
2023-12-11T09:53:50.554Z,43.00
2023-12-11T09:56:19.600Z,40.90
2023-12-11T09:58:48.539Z,43.00
2023-12-11T10:01:18.144Z,44.20
2023-12-11T10:03:46.754Z,44.70
2023-12-11T10:06:16.806Z,44.50
2023-12-11T10:08:48.647Z,44.80
2023-12-11T10:11:19.568Z,40.30
2023-12-11T10:13:50.646Z,39.90
2023-12-11T10:16:30.221Z,39.30
2023-12-11T10:18:59.624Z,38.40
2023-12-11T10:21:29.097Z,35.80
2023-12-11T10:24:06.975Z,35.00
2023-12-11T10:26:39.986Z,35.90
2023-12-11T10:29:22.927Z,30.90
2023-12-11T10:31:51.665Z,35.40
2023-12-11T10:34:20.361Z,30.60
2023-12-11T10:36:52.373Z,29.80
2023-12-11T10:39:24.620Z,30.60
2023-12-11T10:41:55.853Z,30.30
2023-12-11T10:44:42.876Z,24.80
2023-12-11T10:47:15.994Z,28.20
2023-12-11T10:49:44.954Z,28.50
2023-12-11T10:52:13.671Z,27.00
2023-12-11T10:54:43.426Z,26.40
2023-12-11T10:57:18.572Z,29.40
2023-12-11T10:59:47.514Z,30.30
2023-12-11T11:02:18.994Z,29.30
2023-12-11T11:04:48.909Z,29.70
2023-12-11T11:07:27.166Z,27.50
2023-12-11T11:10:01.963Z,27.30
2023-12-11T11:12:43.919Z,27.10
2023-12-11T11:15:12.654Z,30.70
2023-12-11T11:18:00.820Z,30.70
2023-12-11T11:20:30.203Z,31.70
2023-12-11T11:23:23.957Z,32.40
2023-12-11T11:25:55.721Z,32.70
2023-12-11T11:28:45.589Z,34.80
2023-12-11T11:31:23.521Z,33.50
2023-12-11T11:33:58.380Z,34.70
2023-12-11T11:36:48.155Z,35.70
2023-12-11T11:39:17.884Z,36.40
2023-12-11T11:41:46.604Z,36.70
2023-12-11T11:44:17.906Z,36.60
2023-12-11T11:46:57.432Z,35.90
2023-12-11T11:49:36.890Z,33.60
2023-12-11T11:52:07.303Z,33.60
2023-12-11T11:54:39.613Z,31.70
2023-12-11T11:57:08.859Z,31.60
2023-12-11T11:59:46.155Z,33.30
2023-12-11T12:02:22.530Z,34.10
2023-12-11T12:04:51.034Z,31.80
2023-12-11T12:07:20.034Z,27.70
2023-12-11T12:09:54.663Z,22.40
2023-12-11T12:12:23.204Z,25.60
2023-12-11T12:15:04.236Z,22.20
2023-12-11T12:17:33.310Z,19.10
2023-12-11T12:20:02.259Z,22.30
2023-12-11T12:22:30.898Z,21.30
2023-12-11T12:24:59.507Z,19.60
2023-12-11T12:27:29.339Z,21.10
2023-12-11T12:29:59.340Z,20.00
2023-12-11T12:32:30.335Z,21.70
2023-12-11T12:34:59.309Z,20.40
2023-12-11T12:37:28.864Z,19.90
2023-12-11T12:39:58.758Z,20.50
2023-12-11T12:42:31.850Z,22.30
2023-12-11T12:45:00.378Z,22.70
2023-12-11T12:47:30.619Z,25.80
2023-12-11T12:49:59.223Z,26.70
2023-12-11T12:52:29.229Z,27.10
2023-12-11T12:54:58.174Z,23.60
2023-12-11T12:57:26.912Z,25.80
2023-12-11T12:59:55.380Z,26.50
2023-12-11T13:02:24.099Z,31.80
2023-12-11T13:04:55.660Z,34.00
2023-12-11T13:07:25.373Z,38.10
2023-12-11T13:09:55.904Z,43.30
2023-12-11T13:12:25.097Z,44.10
2023-12-11T13:14:54.882Z,48.70
2023-12-11T13:17:23.490Z,54.10
2023-12-11T13:19:53.668Z,54.80
2023-12-11T13:22:22.453Z,56.10
2023-12-11T13:24:53.362Z,59.50
2023-12-11T13:27:22.963Z,61.70
2023-12-11T13:29:51.394Z,60.70
2023-12-11T13:32:20.717Z,59.50
2023-12-11T13:34:49.241Z,59.00
2023-12-11T13:37:20.998Z,57.00
2023-12-11T13:39:49.674Z,54.80
2023-12-11T13:42:18.256Z,52.50
2023-12-11T13:44:48.089Z,52.70
2023-12-11T13:47:16.704Z,52.10
2023-12-11T13:49:45.280Z,51.10
2023-12-11T13:52:14.026Z,50.30
2023-12-11T13:54:43.993Z,49.60
2023-12-11T13:57:12.528Z,47.40
2023-12-11T13:59:41.414Z,46.60
2023-12-11T14:02:10.084Z,45.10
2023-12-11T14:04:39.292Z,44.40
2023-12-11T14:07:08.031Z,39.20
2023-12-11T14:09:37.110Z,34.30
2023-12-11T14:12:08.451Z,30.10
2023-12-11T14:14:38.081Z,25.50
2023-12-11T14:17:08.488Z,24.30
2023-12-11T14:19:42.124Z,20.30
2023-12-11T14:22:12.885Z,22.60
2023-12-11T14:24:43.622Z,19.00
2023-12-11T14:27:15.405Z,19.20
2023-12-11T14:29:44.211Z,20.30
2023-12-11T14:32:12.708Z,19.40
2023-12-11T14:34:43.801Z,20.40
2023-12-11T14:37:14.911Z,21.70
2023-12-11T14:39:43.982Z,20.50
2023-12-11T14:42:14.260Z,20.90
2023-12-11T14:44:42.857Z,23.00
2023-12-11T14:47:11.587Z,24.70
2023-12-11T14:49:40.353Z,24.60
2023-12-11T14:52:08.765Z,26.70
2023-12-11T14:54:37.280Z,27.40
2023-12-11T14:57:05.861Z,26.80
2023-12-11T14:59:36.247Z,27.60
2023-12-11T15:02:05.386Z,27.50
2023-12-11T15:04:36.749Z,26.80
2023-12-11T15:07:06.520Z,27.00
2023-12-11T15:09:36.483Z,28.20
2023-12-11T15:12:05.112Z,28.20
2023-12-11T15:14:35.308Z,28.80
2023-12-11T15:17:04.314Z,31.00
2023-12-11T15:19:32.839Z,34.10
2023-12-11T15:22:01.743Z,34.10
2023-12-11T15:24:31.478Z,35.20
2023-12-11T15:26:59.953Z,37.10
2023-12-11T15:29:28.345Z,37.80
2023-12-11T15:31:58.306Z,38.50
2023-12-11T15:34:26.895Z,37.60
2023-12-11T15:36:55.372Z,38.50
2023-12-11T15:39:25.246Z,38.30
2023-12-11T15:41:53.809Z,39.30
2023-12-11T15:44:22.270Z,42.10
2023-12-11T15:46:50.709Z,44.90
2023-12-11T15:49:20.768Z,48.00
2023-12-11T15:51:52.928Z,49.40
2023-12-11T15:54:21.744Z,51.00
2023-12-11T15:56:50.236Z,51.90
2023-12-11T15:59:18.652Z,51.80
2023-12-11T16:01:47.761Z,51.90
2023-12-11T16:04:16.214Z,52.60
2023-12-11T16:06:46.589Z,53.70
2023-12-11T16:09:15.489Z,54.80
2023-12-11T16:11:43.930Z,54.10
2023-12-11T16:14:12.347Z,54.30
2023-12-11T16:16:42.139Z,53.10
2023-12-11T16:19:12.676Z,53.60
2023-12-11T16:21:41.219Z,51.90
2023-12-11T16:24:11.420Z,53.80
2023-12-11T16:26:40.252Z,53.20
2023-12-11T16:29:08.704Z,53.70
2023-12-11T16:31:37.201Z,55.20
2023-12-11T16:34:05.732Z,56.00
2023-12-11T16:36:34.186Z,58.60
2023-12-11T16:39:02.664Z,62.40
2023-12-11T16:41:32.524Z,65.20
2023-12-11T16:44:00.914Z,66.40
2023-12-11T16:46:29.446Z,68.00
2023-12-11T16:48:58.134Z,69.80
2023-12-11T16:51:26.672Z,70.90
2023-12-11T16:53:55.044Z,69.50
2023-12-11T16:56:23.553Z,68.00
2023-12-11T16:58:55.731Z,66.20
2023-12-11T17:01:24.248Z,65.00
2023-12-11T17:03:53.021Z,65.00
2023-12-11T17:06:23.660Z,65.20
2023-12-11T17:08:52.063Z,61.10
2023-12-11T17:11:20.697Z,62.50
2023-12-11T17:13:49.101Z,62.70
2023-12-11T17:16:18.996Z,60.90
2023-12-11T17:18:47.579Z,61.00
2023-12-11T17:21:24.774Z,57.70
2023-12-11T17:27:13.647Z,54.70
2023-12-11T17:29:42.284Z,53.10
2023-12-11T17:32:12.122Z,51.70
2023-12-11T17:34:41.266Z,51.20
2023-12-11T17:37:10.961Z,47.60
2023-12-11T17:39:39.383Z,47.00
2023-12-11T17:42:07.825Z,46.00
2023-12-11T17:44:36.282Z,46.20
2023-12-11T17:47:04.889Z,46.40
2023-12-11T17:49:34.842Z,47.30
2023-12-11T17:52:03.360Z,45.80
2023-12-11T17:54:31.761Z,44.10
2023-12-11T17:57:00.205Z,42.80
2023-12-11T17:59:28.596Z,40.60
2023-12-11T18:01:57.495Z,39.90
2023-12-11T18:04:26.068Z,38.60
2023-12-11T18:06:56.232Z,39.00
2023-12-11T18:09:24.997Z,39.20
2023-12-11T18:11:53.442Z,39.10
2023-12-11T18:14:22.147Z,40.00
2023-12-11T18:16:50.642Z,39.80
2023-12-11T18:19:19.100Z,40.30
2023-12-11T18:21:47.648Z,40.10
2023-12-11T18:24:17.484Z,41.00
2023-12-11T18:26:46.601Z,41.10
2023-12-11T18:29:16.281Z,42.50
2023-12-11T18:31:44.820Z,43.70
2023-12-11T18:34:13.463Z,44.30
2023-12-11T18:36:43.130Z,45.60
2023-12-11T18:39:14.110Z,47.60
2023-12-11T18:41:47.276Z,47.90
2023-12-11T18:44:15.776Z,48.20
2023-12-11T18:46:44.144Z,48.10
2023-12-11T18:49:13.987Z,49.50
2023-12-11T18:51:42.549Z,50.10
2023-12-11T18:54:11.459Z,51.40
2023-12-11T18:56:40.775Z,52.40
2023-12-11T18:59:14.595Z,52.90
2023-12-11T19:01:43.221Z,51.10
2023-12-11T19:04:12.001Z,50.10
2023-12-11T19:06:40.574Z,49.10
2023-12-11T19:09:09.878Z,45.40
2023-12-11T19:11:38.320Z,45.70
2023-12-11T19:14:06.742Z,47.10
2023-12-11T19:16:36.606Z,48.00
2023-12-11T19:19:05.128Z,47.80
2023-12-11T19:21:33.701Z,47.20
2023-12-11T19:24:02.370Z,46.80
2023-12-11T19:26:30.759Z,47.10
2023-12-11T19:28:59.148Z,47.00
2023-12-11T19:31:27.663Z,46.70
2023-12-11T19:33:57.988Z,47.60
2023-12-11T19:36:26.503Z,47.90
2023-12-11T19:38:54.898Z,48.50
2023-12-11T19:41:23.523Z,49.60
2023-12-11T19:43:52.176Z,49.40
2023-12-11T19:46:20.686Z,48.90
2023-12-11T19:48:49.280Z,49.60
2023-12-11T19:51:19.582Z,49.70
2023-12-11T19:53:48.009Z,49.80
2023-12-11T19:56:22.702Z,49.60
2023-12-11T19:58:51.134Z,50.20
2023-12-11T20:01:28.712Z,51.40
2023-12-11T20:03:57.449Z,52.80
2023-12-11T20:06:28.593Z,53.80
2023-12-11T20:08:57.300Z,56.10
2023-12-11T20:11:28.268Z,56.60
2023-12-11T20:13:56.729Z,57.40
2023-12-11T20:16:25.498Z,58.50
2023-12-11T20:18:54.202Z,59.40
2023-12-11T20:21:22.857Z,60.50
2023-12-11T20:23:53.065Z,61.70
2023-12-11T20:26:23.757Z,61.00
2023-12-11T20:28:52.185Z,62.10
2023-12-11T20:31:21.130Z,63.80
2023-12-11T20:33:49.818Z,65.10
2023-12-11T20:36:18.830Z,65.20
2023-12-11T20:38:47.908Z,66.50
2023-12-11T20:41:24.867Z,68.10
2023-12-11T20:43:56.821Z,68.60
2023-12-11T20:46:27.605Z,70.00
2023-12-11T20:48:56.639Z,70.30
2023-12-11T20:51:25.307Z,71.50
2023-12-11T20:53:53.935Z,72.70
2023-12-11T20:56:24.818Z,74.30
2023-12-11T20:58:54.654Z,75.70
2023-12-11T21:01:30.174Z,77.10
2023-12-11T21:03:59.838Z,78.90
2023-12-11T21:06:29.154Z,79.90
2023-12-11T21:08:58.860Z,80.10
2023-12-11T21:11:29.260Z,78.60
2023-12-11T21:13:57.702Z,78.10
2023-12-11T21:16:26.134Z,78.40
2023-12-11T21:18:54.751Z,78.50
2023-12-11T21:21:24.958Z,79.40
2023-12-11T21:23:53.518Z,79.30
2023-12-11T21:26:22.835Z,78.10
2023-12-11T21:28:53.670Z,78.50
2023-12-11T21:31:23.385Z,79.60
2023-12-11T21:33:53.479Z,80.30
2023-12-11T21:36:22.996Z,81.20
2023-12-11T21:38:51.759Z,81.00
2023-12-11T21:41:20.663Z,80.80
2023-12-11T21:43:51.112Z,80.60
2023-12-11T21:46:22.277Z,81.20
2023-12-11T21:48:50.968Z,81.40
2023-12-11T21:51:20.666Z,79.90
2023-12-11T21:53:49.718Z,79.50
2023-12-11T21:56:18.145Z,78.60
2023-12-11T21:58:46.549Z,77.80
2023-12-11T22:01:15.051Z,77.40
2023-12-11T22:03:44.872Z,75.80
2023-12-11T22:06:14.962Z,75.10
2023-12-11T22:08:43.500Z,74.40
2023-12-11T22:11:15.292Z,73.80
2023-12-11T22:13:46.347Z,72.20
2023-12-11T22:16:16.167Z,71.60
2023-12-11T22:18:49.000Z,71.10
2023-12-11T22:21:23.834Z,71.40
2023-12-11T22:23:53.805Z,71.20
2023-12-11T22:26:22.987Z,69.50
2023-12-11T22:28:51.425Z,67.70
2023-12-11T22:31:30.165Z,66.20
2023-12-11T22:34:00.436Z,66.10
2023-12-11T22:36:29.547Z,65.40
2023-12-11T22:38:58.154Z,63.80
2023-12-11T22:41:26.708Z,62.30
2023-12-11T22:43:55.344Z,56.80
2023-12-11T22:46:24.825Z,51.00
2023-12-11T22:48:53.799Z,46.80
2023-12-11T22:51:24.230Z,43.90
2023-12-11T22:53:52.891Z,41.90
2023-12-11T22:56:21.291Z,42.40
2023-12-11T22:58:49.701Z,43.70
2023-12-11T23:01:18.325Z,47.40
2023-12-11T23:03:46.856Z,52.60
2023-12-11T23:06:15.383Z,57.40
2023-12-11T23:08:45.261Z,60.80
2023-12-11T23:11:13.710Z,62.60
2023-12-11T23:13:42.159Z,64.50
2023-12-11T23:16:10.788Z,66.20
2023-12-11T23:18:39.388Z,67.50
2023-12-11T23:21:17.133Z,69.20
2023-12-11T23:23:46.992Z,70.30
2023-12-11T23:26:15.442Z,69.40
2023-12-11T23:28:43.844Z,68.30
2023-12-11T23:31:12.430Z,65.80
2023-12-11T23:33:40.889Z,62.10
2023-12-11T23:36:09.198Z,60.00
2023-12-11T23:38:37.608Z,57.30
2023-12-11T23:41:07.769Z,52.80
2023-12-11T23:43:36.188Z,48.50
2023-12-11T23:46:03.785Z,43.90
2023-12-11T23:48:32.373Z,40.00
2023-12-11T23:51:00.908Z,39.80
2023-12-11T23:53:29.356Z,43.90
2023-12-11T23:55:57.854Z,47.10
2023-12-11T23:58:27.708Z,51.00
